sensor_id;sensor_type;location;lat;lon;timestamp;temperature;humidity
11569;DHT22;5840;46.894;15.542;2023-07-29T00:01:36;19.00;99.90
11569;DHT22;5840;46.894;15.542;2023-07-29T00:04:05;18.90;99.90
11569;DHT22;5840;46.894;15.542;2023-07-29T00:06:33;18.90;99.90
11569;DHT22;5840;46.894;15.542;2023-07-29T00:09:02;18.90;99.90
11569;DHT22;5840;46.894;15.542;2023-07-29T00:11:29;18.90;99.90
11569;DHT22;5840;46.894;15.542;2023-07-29T00:13:58;18.90;99.90
11569;DHT22;5840;46.894;15.542;2023-07-29T00:16:25;18.90;99.90
11569;DHT22;5840;46.894;15.542;2023-07-29T00:18:52;18.90;99.90
11569;DHT22;5840;46.894;15.542;2023-07-29T00:21:19;18.90;99.90
11569;DHT22;5840;46.894;15.542;2023-07-29T00:23:45;18.90;99.90
11569;DHT22;5840;46.894;15.542;2023-07-29T00:26:14;18.90;99.90
11569;DHT22;5840;46.894;15.542;2023-07-29T00:28:41;18.80;99.90
11569;DHT22;5840;46.894;15.542;2023-07-29T00:31:08;18.80;99.90
11569;DHT22;5840;46.894;15.542;2023-07-29T00:33:34;18.80;99.90
11569;DHT22;5840;46.894;15.542;2023-07-29T00:36:01;18.80;99.90
11569;DHT22;5840;46.894;15.542;2023-07-29T00:38:28;18.80;99.90
11569;DHT22;5840;46.894;15.542;2023-07-29T00:40:57;18.80;99.90
11569;DHT22;5840;46.894;15.542;2023-07-29T00:43:26;18.80;99.90
11569;DHT22;5840;46.894;15.542;2023-07-29T00:45:53;18.70;99.90
11569;DHT22;5840;46.894;15.542;2023-07-29T00:48:20;18.70;99.90
11569;DHT22;5840;46.894;15.542;2023-07-29T00:50:47;18.70;99.90
11569;DHT22;5840;46.894;15.542;2023-07-29T00:53:14;18.70;99.90
11569;DHT22;5840;46.894;15.542;2023-07-29T00:55:41;18.70;99.90
11569;DHT22;5840;46.894;15.542;2023-07-29T00:58:08;18.60;99.90
11569;DHT22;5840;46.894;15.542;2023-07-29T01:00:37;18.60;99.90
11569;DHT22;5840;46.894;15.542;2023-07-29T01:03:04;18.60;99.90
11569;DHT22;5840;46.894;15.542;2023-07-29T01:05:36;18.60;99.90
11569;DHT22;5840;46.894;15.542;2023-07-29T01:08:11;18.50;99.90
11569;DHT22;5840;46.894;15.542;2023-07-29T01:10:44;18.50;99.90
11569;DHT22;5840;46.894;15.542;2023-07-29T01:13:18;18.50;99.90
11569;DHT22;5840;46.894;15.542;2023-07-29T01:15:52;18.40;99.90
11569;DHT22;5840;46.894;15.542;2023-07-29T01:18:23;18.40;99.90
11569;DHT22;5840;46.894;15.542;2023-07-29T01:20:53;18.40;99.90
11569;DHT22;5840;46.894;15.542;2023-07-29T01:23:25;18.40;99.90
11569;DHT22;5840;46.894;15.542;2023-07-29T01:25:52;18.40;99.90
11569;DHT22;5840;46.894;15.542;2023-07-29T01:28:18;18.30;99.90
11569;DHT22;5840;46.894;15.542;2023-07-29T01:30:49;18.30;99.90
11569;DHT22;5840;46.894;15.542;2023-07-29T01:33:19;18.30;99.90
11569;DHT22;5840;46.894;15.542;2023-07-29T01:35:48;18.30;99.90
11569;DHT22;5840;46.894;15.542;2023-07-29T01:38:18;18.30;99.90
11569;DHT22;5840;46.894;15.542;2023-07-29T01:40:48;18.30;99.90
11569;DHT22;5840;46.894;15.542;2023-07-29T01:43:17;18.20;99.90
11569;DHT22;5840;46.894;15.542;2023-07-29T01:45:44;18.20;99.90
11569;DHT22;5840;46.894;15.542;2023-07-29T01:48:12;18.20;99.90
11569;DHT22;5840;46.894;15.542;2023-07-29T01:50:38;18.20;99.90
11569;DHT22;5840;46.894;15.542;2023-07-29T01:53:05;18.20;99.90
11569;DHT22;5840;46.894;15.542;2023-07-29T01:55:32;18.20;99.90
11569;DHT22;5840;46.894;15.542;2023-07-29T01:58:00;18.20;99.90
11569;DHT22;5840;46.894;15.542;2023-07-29T02:00:27;18.20;99.90
11569;DHT22;5840;46.894;15.542;2023-07-29T02:02:54;18.10;99.90
11569;DHT22;5840;46.894;15.542;2023-07-29T02:05:21;18.10;99.90
11569;DHT22;5840;46.894;15.542;2023-07-29T02:07:48;18.10;99.90
11569;DHT22;5840;46.894;15.542;2023-07-29T02:10:15;18.10;99.90
11569;DHT22;5840;46.894;15.542;2023-07-29T02:12:42;18.00;99.90
11569;DHT22;5840;46.894;15.542;2023-07-29T02:15:11;18.00;99.90
11569;DHT22;5840;46.894;15.542;2023-07-29T02:17:37;18.00;99.90
11569;DHT22;5840;46.894;15.542;2023-07-29T02:20:05;17.90;99.90
11569;DHT22;5840;46.894;15.542;2023-07-29T02:22:33;17.80;99.90
11569;DHT22;5840;46.894;15.542;2023-07-29T02:24:59;17.80;99.90
11569;DHT22;5840;46.894;15.542;2023-07-29T02:27:26;17.80;99.90
11569;DHT22;5840;46.894;15.542;2023-07-29T02:29:53;17.80;99.90
11569;DHT22;5840;46.894;15.542;2023-07-29T02:32:22;17.80;99.90
11569;DHT22;5840;46.894;15.542;2023-07-29T02:34:49;17.80;99.90
11569;DHT22;5840;46.894;15.542;2023-07-29T02:37:16;17.80;99.90
11569;DHT22;5840;46.894;15.542;2023-07-29T02:39:43;17.80;99.90
11569;DHT22;5840;46.894;15.542;2023-07-29T02:42:10;17.80;99.90
11569;DHT22;5840;46.894;15.542;2023-07-29T02:44:37;17.80;99.90
11569;DHT22;5840;46.894;15.542;2023-07-29T02:47:04;17.80;99.90
11569;DHT22;5840;46.894;15.542;2023-07-29T02:49:32;17.80;99.90
11569;DHT22;5840;46.894;15.542;2023-07-29T02:51:59;17.80;99.90
11569;DHT22;5840;46.894;15.542;2023-07-29T02:54:26;17.80;99.90
11569;DHT22;5840;46.894;15.542;2023-07-29T02:56:53;17.80;99.90
11569;DHT22;5840;46.894;15.542;2023-07-29T02:59:20;17.80;99.90
11569;DHT22;5840;46.894;15.542;2023-07-29T03:01:47;17.80;99.90
11569;DHT22;5840;46.894;15.542;2023-07-29T03:04:14;17.80;99.90
11569;DHT22;5840;46.894;15.542;2023-07-29T03:06:42;17.80;99.90
11569;DHT22;5840;46.894;15.542;2023-07-29T03:09:09;17.80;99.90
11569;DHT22;5840;46.894;15.542;2023-07-29T03:11:36;17.70;99.90
11569;DHT22;5840;46.894;15.542;2023-07-29T03:14:03;17.70;99.90
11569;DHT22;5840;46.894;15.542;2023-07-29T03:16:30;17.70;99.90
11569;DHT22;5840;46.894;15.542;2023-07-29T03:18:56;17.70;99.90
11569;DHT22;5840;46.894;15.542;2023-07-29T03:21:25;17.70;99.90
11569;DHT22;5840;46.894;15.542;2023-07-29T03:23:54;17.70;99.90
11569;DHT22;5840;46.894;15.542;2023-07-29T03:26:21;17.70;99.90
11569;DHT22;5840;46.894;15.542;2023-07-29T03:28:47;17.60;99.90
11569;DHT22;5840;46.894;15.542;2023-07-29T03:31:14;17.60;99.90
11569;DHT22;5840;46.894;15.542;2023-07-29T03:33:41;17.70;99.90
11569;DHT22;5840;46.894;15.542;2023-07-29T03:36:08;17.60;99.90
11569;DHT22;5840;46.894;15.542;2023-07-29T03:38:35;17.60;99.90
11569;DHT22;5840;46.894;15.542;2023-07-29T03:41:07;17.60;99.90
11569;DHT22;5840;46.894;15.542;2023-07-29T03:43:34;17.70;99.90
11569;DHT22;5840;46.894;15.542;2023-07-29T03:46:01;17.70;99.90
11569;DHT22;5840;46.894;15.542;2023-07-29T03:48:28;17.70;99.90
11569;DHT22;5840;46.894;15.542;2023-07-29T03:50:54;17.70;99.90
11569;DHT22;5840;46.894;15.542;2023-07-29T03:53:21;17.60;99.90
11569;DHT22;5840;46.894;15.542;2023-07-29T03:55:48;17.60;99.90
11569;DHT22;5840;46.894;15.542;2023-07-29T03:58:18;17.60;99.90
11569;DHT22;5840;46.894;15.542;2023-07-29T04:00:44;17.50;99.90
11569;DHT22;5840;46.894;15.542;2023-07-29T04:03:11;17.50;99.90
11569;DHT22;5840;46.894;15.542;2023-07-29T04:05:38;17.60;99.90
11569;DHT22;5840;46.894;15.542;2023-07-29T04:08:05;17.60;99.90
11569;DHT22;5840;46.894;15.542;2023-07-29T04:10:32;17.60;99.90
11569;DHT22;5840;46.894;15.542;2023-07-29T04:13:00;17.60;99.90
11569;DHT22;5840;46.894;15.542;2023-07-29T04:15:28;17.60;99.90
11569;DHT22;5840;46.894;15.542;2023-07-29T04:17:56;17.60;99.90
11569;DHT22;5840;46.894;15.542;2023-07-29T04:20:23;17.60;99.90
11569;DHT22;5840;46.894;15.542;2023-07-29T04:22:50;17.70;99.90
11569;DHT22;5840;46.894;15.542;2023-07-29T04:25:16;17.70;99.90
11569;DHT22;5840;46.894;15.542;2023-07-29T04:27:43;17.70;99.90
11569;DHT22;5840;46.894;15.542;2023-07-29T04:30:11;17.80;99.90
11569;DHT22;5840;46.894;15.542;2023-07-29T04:32:39;17.80;99.90
11569;DHT22;5840;46.894;15.542;2023-07-29T04:35:08;17.80;99.90
11569;DHT22;5840;46.894;15.542;2023-07-29T04:37:34;17.80;99.90
11569;DHT22;5840;46.894;15.542;2023-07-29T04:40:01;17.80;99.90
11569;DHT22;5840;46.894;15.542;2023-07-29T04:42:28;17.80;99.90
11569;DHT22;5840;46.894;15.542;2023-07-29T04:44:55;17.90;99.90
11569;DHT22;5840;46.894;15.542;2023-07-29T04:47:22;17.90;99.90
11569;DHT22;5840;46.894;15.542;2023-07-29T04:49:50;17.90;99.90
11569;DHT22;5840;46.894;15.542;2023-07-29T04:52:17;17.90;99.90
11569;DHT22;5840;46.894;15.542;2023-07-29T04:54:45;18.00;99.90
11569;DHT22;5840;46.894;15.542;2023-07-29T04:57:12;18.00;99.90
11569;DHT22;5840;46.894;15.542;2023-07-29T04:59:39;18.00;99.90
11569;DHT22;5840;46.894;15.542;2023-07-29T05:02:06;18.10;99.90
11569;DHT22;5840;46.894;15.542;2023-07-29T05:04:33;18.10;99.90
11569;DHT22;5840;46.894;15.542;2023-07-29T05:07:01;18.10;99.90
11569;DHT22;5840;46.894;15.542;2023-07-29T05:09:28;18.10;99.90
11569;DHT22;5840;46.894;15.542;2023-07-29T05:11:55;18.20;99.90
11569;DHT22;5840;46.894;15.542;2023-07-29T05:14:21;18.20;99.90
11569;DHT22;5840;46.894;15.542;2023-07-29T05:16:49;18.30;99.90
11569;DHT22;5840;46.894;15.542;2023-07-29T05:19:16;18.40;99.90
11569;DHT22;5840;46.894;15.542;2023-07-29T05:21:43;18.50;99.90
11569;DHT22;5840;46.894;15.542;2023-07-29T05:24:11;18.60;99.90
11569;DHT22;5840;46.894;15.542;2023-07-29T05:26:38;18.70;99.90
11569;DHT22;5840;46.894;15.542;2023-07-29T05:29:05;18.80;99.90
11569;DHT22;5840;46.894;15.542;2023-07-29T05:31:32;19.00;99.90
11569;DHT22;5840;46.894;15.542;2023-07-29T05:34:00;19.10;99.90
11569;DHT22;5840;46.894;15.542;2023-07-29T05:36:27;19.20;99.90
11569;DHT22;5840;46.894;15.542;2023-07-29T05:38:54;19.30;99.90
11569;DHT22;5840;46.894;15.542;2023-07-29T05:41:23;19.40;99.90
11569;DHT22;5840;46.894;15.542;2023-07-29T05:43:52;19.40;99.90
11569;DHT22;5840;46.894;15.542;2023-07-29T05:46:18;19.30;99.90
11569;DHT22;5840;46.894;15.542;2023-07-29T05:48:45;19.30;99.90
11569;DHT22;5840;46.894;15.542;2023-07-29T05:51:12;19.20;99.90
11569;DHT22;5840;46.894;15.542;2023-07-29T05:53:39;19.20;99.90
11569;DHT22;5840;46.894;15.542;2023-07-29T05:56:06;19.20;99.90
11569;DHT22;5840;46.894;15.542;2023-07-29T05:58:34;19.20;99.90
11569;DHT22;5840;46.894;15.542;2023-07-29T06:01:01;19.20;99.90
11569;DHT22;5840;46.894;15.542;2023-07-29T06:03:28;19.20;99.90
11569;DHT22;5840;46.894;15.542;2023-07-29T06:05:55;19.20;99.90
11569;DHT22;5840;46.894;15.542;2023-07-29T06:08:22;19.20;99.90
11569;DHT22;5840;46.894;15.542;2023-07-29T06:10:49;19.20;99.90
11569;DHT22;5840;46.894;15.542;2023-07-29T06:13:16;19.20;99.90
11569;DHT22;5840;46.894;15.542;2023-07-29T06:15:44;19.20;99.90
11569;DHT22;5840;46.894;15.542;2023-07-29T06:18:11;19.20;99.90
11569;DHT22;5840;46.894;15.542;2023-07-29T06:20:38;19.20;99.90
11569;DHT22;5840;46.894;15.542;2023-07-29T06:23:05;19.20;99.90
11569;DHT22;5840;46.894;15.542;2023-07-29T06:25:31;19.30;99.90
11569;DHT22;5840;46.894;15.542;2023-07-29T06:27:59;19.30;99.90
11569;DHT22;5840;46.894;15.542;2023-07-29T06:30:26;19.40;99.90
11569;DHT22;5840;46.894;15.542;2023-07-29T06:32:54;19.40;99.90
11569;DHT22;5840;46.894;15.542;2023-07-29T06:35:21;19.40;99.90
11569;DHT22;5840;46.894;15.542;2023-07-29T06:37:49;19.50;99.90
11569;DHT22;5840;46.894;15.542;2023-07-29T06:40:16;19.60;99.90
11569;DHT22;5840;46.894;15.542;2023-07-29T06:42:44;19.60;99.90
11569;DHT22;5840;46.894;15.542;2023-07-29T06:45:11;19.60;99.90
11569;DHT22;5840;46.894;15.542;2023-07-29T06:47:38;19.60;99.90
11569;DHT22;5840;46.894;15.542;2023-07-29T06:50:07;19.60;99.90
11569;DHT22;5840;46.894;15.542;2023-07-29T06:52:33;19.70;99.90
11569;DHT22;5840;46.894;15.542;2023-07-29T06:55:02;19.70;99.90
11569;DHT22;5840;46.894;15.542;2023-07-29T06:57:29;19.80;99.90
11569;DHT22;5840;46.894;15.542;2023-07-29T06:59:56;19.80;99.90
11569;DHT22;5840;46.894;15.542;2023-07-29T07:02:23;19.90;99.90
11569;DHT22;5840;46.894;15.542;2023-07-29T07:04:50;20.00;99.90
11569;DHT22;5840;46.894;15.542;2023-07-29T07:07:18;20.20;99.90
11569;DHT22;5840;46.894;15.542;2023-07-29T07:09:45;20.30;99.90
11569;DHT22;5840;46.894;15.542;2023-07-29T07:12:12;20.40;99.90
11569;DHT22;5840;46.894;15.542;2023-07-29T07:14:39;20.50;99.90
11569;DHT22;5840;46.894;15.542;2023-07-29T07:17:06;20.60;99.90
11569;DHT22;5840;46.894;15.542;2023-07-29T07:19:32;20.70;99.90
11569;DHT22;5840;46.894;15.542;2023-07-29T07:21:59;20.70;99.90
11569;DHT22;5840;46.894;15.542;2023-07-29T07:24:28;20.80;99.90
11569;DHT22;5840;46.894;15.542;2023-07-29T07:26:54;20.90;99.90
11569;DHT22;5840;46.894;15.542;2023-07-29T07:29:21;20.80;99.90
11569;DHT22;5840;46.894;15.542;2023-07-29T07:31:50;21.00;99.90
11569;DHT22;5840;46.894;15.542;2023-07-29T07:34:18;21.00;99.90
11569;DHT22;5840;46.894;15.542;2023-07-29T07:36:45;21.10;99.90
11569;DHT22;5840;46.894;15.542;2023-07-29T07:39:12;21.30;99.90
11569;DHT22;5840;46.894;15.542;2023-07-29T07:41:40;21.30;99.90
11569;DHT22;5840;46.894;15.542;2023-07-29T07:44:07;21.40;99.90
11569;DHT22;5840;46.894;15.542;2023-07-29T07:46:36;21.40;99.90
11569;DHT22;5840;46.894;15.542;2023-07-29T07:49:03;21.60;99.90
11569;DHT22;5840;46.894;15.542;2023-07-29T07:51:30;21.70;99.90
11569;DHT22;5840;46.894;15.542;2023-07-29T07:53:57;21.80;99.90
11569;DHT22;5840;46.894;15.542;2023-07-29T07:56:24;21.90;99.90
11569;DHT22;5840;46.894;15.542;2023-07-29T07:58:52;22.10;99.90
11569;DHT22;5840;46.894;15.542;2023-07-29T08:01:19;22.30;99.90
11569;DHT22;5840;46.894;15.542;2023-07-29T08:03:46;22.50;99.90
11569;DHT22;5840;46.894;15.542;2023-07-29T08:06:13;22.70;99.90
11569;DHT22;5840;46.894;15.542;2023-07-29T08:08:40;22.80;99.90
11569;DHT22;5840;46.894;15.542;2023-07-29T08:11:07;23.00;99.90
11569;DHT22;5840;46.894;15.542;2023-07-29T08:13:34;23.30;99.90
11569;DHT22;5840;46.894;15.542;2023-07-29T08:16:02;23.60;99.90
11569;DHT22;5840;46.894;15.542;2023-07-29T08:18:29;23.90;99.90
11569;DHT22;5840;46.894;15.542;2023-07-29T08:20:56;24.30;99.90
11569;DHT22;5840;46.894;15.542;2023-07-29T08:23:25;24.60;99.90
11569;DHT22;5840;46.894;15.542;2023-07-29T08:25:57;24.80;99.90
11569;DHT22;5840;46.894;15.542;2023-07-29T08:28:27;25.00;99.90
11569;DHT22;5840;46.894;15.542;2023-07-29T08:30:54;25.30;99.90
11569;DHT22;5840;46.894;15.542;2023-07-29T08:33:22;25.50;99.90
11569;DHT22;5840;46.894;15.542;2023-07-29T08:35:49;25.50;99.90
11569;DHT22;5840;46.894;15.542;2023-07-29T08:38:16;25.60;99.90
11569;DHT22;5840;46.894;15.542;2023-07-29T08:40:46;25.80;99.90
11569;DHT22;5840;46.894;15.542;2023-07-29T08:43:17;25.90;99.90
11569;DHT22;5840;46.894;15.542;2023-07-29T08:45:46;26.00;99.90
11569;DHT22;5840;46.894;15.542;2023-07-29T08:48:15;26.10;99.90
11569;DHT22;5840;46.894;15.542;2023-07-29T08:50:47;26.20;99.90
11569;DHT22;5840;46.894;15.542;2023-07-29T08:53:15;26.40;99.90
11569;DHT22;5840;46.894;15.542;2023-07-29T08:55:43;26.60;99.90
11569;DHT22;5840;46.894;15.542;2023-07-29T08:58:11;26.70;99.90
11569;DHT22;5840;46.894;15.542;2023-07-29T09:00:38;26.90;99.90
11569;DHT22;5840;46.894;15.542;2023-07-29T09:03:06;27.00;99.90
11569;DHT22;5840;46.894;15.542;2023-07-29T09:05:33;27.10;99.90
11569;DHT22;5840;46.894;15.542;2023-07-29T09:08:02;27.20;99.90
11569;DHT22;5840;46.894;15.542;2023-07-29T09:10:29;27.40;99.90
11569;DHT22;5840;46.894;15.542;2023-07-29T09:12:56;27.60;99.90
11569;DHT22;5840;46.894;15.542;2023-07-29T09:15:28;27.70;99.90
11569;DHT22;5840;46.894;15.542;2023-07-29T09:17:56;27.80;99.90
11569;DHT22;5840;46.894;15.542;2023-07-29T09:20:26;28.10;99.90
11569;DHT22;5840;46.894;15.542;2023-07-29T09:22:55;28.00;99.90
11569;DHT22;5840;46.894;15.542;2023-07-29T09:25:24;28.10;99.90
11569;DHT22;5840;46.894;15.542;2023-07-29T09:27:52;28.10;99.90
11569;DHT22;5840;46.894;15.542;2023-07-29T09:30:19;28.20;99.90
11569;DHT22;5840;46.894;15.542;2023-07-29T09:32:46;28.30;99.90
11569;DHT22;5840;46.894;15.542;2023-07-29T09:35:13;28.20;99.90
11569;DHT22;5840;46.894;15.542;2023-07-29T09:37:40;28.40;99.90
11569;DHT22;5840;46.894;15.542;2023-07-29T09:40:14;28.60;99.90
11569;DHT22;5840;46.894;15.542;2023-07-29T09:42:49;28.60;99.90
11569;DHT22;5840;46.894;15.542;2023-07-29T09:45:20;28.60;99.90
11569;DHT22;5840;46.894;15.542;2023-07-29T09:47:47;28.70;98.90
11569;DHT22;5840;46.894;15.542;2023-07-29T09:50:15;28.70;99.90
11569;DHT22;5840;46.894;15.542;2023-07-29T09:52:43;28.80;99.90
11569;DHT22;5840;46.894;15.542;2023-07-29T09:55:11;28.80;99.20
11569;DHT22;5840;46.894;15.542;2023-07-29T09:57:39;28.90;99.90
11569;DHT22;5840;46.894;15.542;2023-07-29T10:00:11;29.20;99.50
11569;DHT22;5840;46.894;15.542;2023-07-29T10:02:40;28.90;97.00
11569;DHT22;5840;46.894;15.542;2023-07-29T10:05:08;29.10;99.90
11569;DHT22;5840;46.894;15.542;2023-07-29T10:07:36;29.10;99.90
11569;DHT22;5840;46.894;15.542;2023-07-29T10:10:05;29.20;99.90
11569;DHT22;5840;46.894;15.542;2023-07-29T10:12:33;29.40;99.90
11569;DHT22;5840;46.894;15.542;2023-07-29T10:15:03;29.60;98.80
11569;DHT22;5840;46.894;15.542;2023-07-29T10:17:34;29.50;99.90
11569;DHT22;5840;46.894;15.542;2023-07-29T10:20:03;29.60;99.90
11569;DHT22;5840;46.894;15.542;2023-07-29T10:22:33;29.40;99.80
11569;DHT22;5840;46.894;15.542;2023-07-29T10:25:04;29.40;98.90
11569;DHT22;5840;46.894;15.542;2023-07-29T10:27:38;29.60;99.90
11569;DHT22;5840;46.894;15.542;2023-07-29T10:30:10;29.60;99.50
11569;DHT22;5840;46.894;15.542;2023-07-29T10:32:42;29.70;99.90
11569;DHT22;5840;46.894;15.542;2023-07-29T10:35:10;29.80;99.90
11569;DHT22;5840;46.894;15.542;2023-07-29T10:37:37;29.80;99.90
11569;DHT22;5840;46.894;15.542;2023-07-29T10:40:07;29.70;99.90
11569;DHT22;5840;46.894;15.542;2023-07-29T10:42:35;29.70;99.90
11569;DHT22;5840;46.894;15.542;2023-07-29T10:45:17;29.70;99.90
11569;DHT22;5840;46.894;15.542;2023-07-29T10:47:47;29.90;99.90
11569;DHT22;5840;46.894;15.542;2023-07-29T10:50:18;30.10;99.90
11569;DHT22;5840;46.894;15.542;2023-07-29T10:52:49;30.20;99.60
11569;DHT22;5840;46.894;15.542;2023-07-29T10:55:28;30.20;98.90
11569;DHT22;5840;46.894;15.542;2023-07-29T10:58:15;30.20;99.80
11569;DHT22;5840;46.894;15.542;2023-07-29T11:00:43;30.30;99.90
11569;DHT22;5840;46.894;15.542;2023-07-29T11:03:13;30.40;99.90
11569;DHT22;5840;46.894;15.542;2023-07-29T11:05:49;30.50;99.90
11569;DHT22;5840;46.894;15.542;2023-07-29T11:08:17;30.70;98.60
11569;DHT22;5840;46.894;15.542;2023-07-29T11:10:43;30.70;99.90
11569;DHT22;5840;46.894;15.542;2023-07-29T11:13:10;30.80;99.90
11569;DHT22;5840;46.894;15.542;2023-07-29T11:15:39;30.80;98.40
11569;DHT22;5840;46.894;15.542;2023-07-29T11:18:06;30.70;99.90
11569;DHT22;5840;46.894;15.542;2023-07-29T11:20:38;30.60;99.40
11569;DHT22;5840;46.894;15.542;2023-07-29T11:23:05;30.70;99.90
11569;DHT22;5840;46.894;15.542;2023-07-29T11:25:32;30.70;99.40
11569;DHT22;5840;46.894;15.542;2023-07-29T11:28:01;30.70;96.30
11569;DHT22;5840;46.894;15.542;2023-07-29T11:30:28;30.70;98.10
11569;DHT22;5840;46.894;15.542;2023-07-29T11:32:57;30.80;98.20
11569;DHT22;5840;46.894;15.542;2023-07-29T11:35:25;30.70;98.50
11569;DHT22;5840;46.894;15.542;2023-07-29T11:37:54;30.40;98.10
11569;DHT22;5840;46.894;15.542;2023-07-29T11:40:23;30.50;99.50
11569;DHT22;5840;46.894;15.542;2023-07-29T11:42:51;30.30;99.80
11569;DHT22;5840;46.894;15.542;2023-07-29T11:45:19;30.50;99.90
11569;DHT22;5840;46.894;15.542;2023-07-29T11:47:46;30.60;98.10
11569;DHT22;5840;46.894;15.542;2023-07-29T11:50:14;30.50;98.20
11569;DHT22;5840;46.894;15.542;2023-07-29T11:52:42;30.70;99.40
11569;DHT22;5840;46.894;15.542;2023-07-29T11:55:12;30.60;98.50
11569;DHT22;5840;46.894;15.542;2023-07-29T11:57:40;30.60;97.40
11569;DHT22;5840;46.894;15.542;2023-07-29T12:00:09;30.50;99.70
11569;DHT22;5840;46.894;15.542;2023-07-29T12:02:38;30.60;97.70
11569;DHT22;5840;46.894;15.542;2023-07-29T12:05:07;30.70;99.30
11569;DHT22;5840;46.894;15.542;2023-07-29T12:07:35;30.70;99.60
11569;DHT22;5840;46.894;15.542;2023-07-29T12:10:03;30.70;99.70
11569;DHT22;5840;46.894;15.542;2023-07-29T12:12:31;30.80;99.90
11569;DHT22;5840;46.894;15.542;2023-07-29T12:14:58;30.80;97.80
11569;DHT22;5840;46.894;15.542;2023-07-29T12:17:26;30.80;98.20
11569;DHT22;5840;46.894;15.542;2023-07-29T12:19:54;30.80;98.80
11569;DHT22;5840;46.894;15.542;2023-07-29T12:22:22;30.90;99.30
11569;DHT22;5840;46.894;15.542;2023-07-29T12:24:51;30.80;96.80
11569;DHT22;5840;46.894;15.542;2023-07-29T12:27:21;30.80;97.70
11569;DHT22;5840;46.894;15.542;2023-07-29T12:29:52;30.90;98.00
11569;DHT22;5840;46.894;15.542;2023-07-29T12:32:19;31.00;97.40
11569;DHT22;5840;46.894;15.542;2023-07-29T12:34:46;31.00;94.90
11569;DHT22;5840;46.894;15.542;2023-07-29T12:37:13;31.10;97.60
11569;DHT22;5840;46.894;15.542;2023-07-29T12:39:41;31.20;99.90
11569;DHT22;5840;46.894;15.542;2023-07-29T12:42:08;31.10;96.10
11569;DHT22;5840;46.894;15.542;2023-07-29T12:44:36;31.00;94.50
11569;DHT22;5840;46.894;15.542;2023-07-29T12:47:06;31.00;98.10
11569;DHT22;5840;46.894;15.542;2023-07-29T12:49:34;31.10;96.30
11569;DHT22;5840;46.894;15.542;2023-07-29T12:52:01;31.10;98.80
11569;DHT22;5840;46.894;15.542;2023-07-29T12:54:28;31.20;99.60
11569;DHT22;5840;46.894;15.542;2023-07-29T12:56:55;31.10;95.50
11569;DHT22;5840;46.894;15.542;2023-07-29T12:59:21;31.10;95.00
11569;DHT22;5840;46.894;15.542;2023-07-29T13:01:49;31.20;96.40
11569;DHT22;5840;46.894;15.542;2023-07-29T13:04:17;31.20;97.50
11569;DHT22;5840;46.894;15.542;2023-07-29T13:06:44;31.20;96.80
11569;DHT22;5840;46.894;15.542;2023-07-29T13:09:11;31.30;96.80
11569;DHT22;5840;46.894;15.542;2023-07-29T13:11:38;31.20;96.00
11569;DHT22;5840;46.894;15.542;2023-07-29T13:14:05;31.10;96.20
11569;DHT22;5840;46.894;15.542;2023-07-29T13:16:31;30.80;96.00
11569;DHT22;5840;46.894;15.542;2023-07-29T13:18:58;30.50;96.20
11569;DHT22;5840;46.894;15.542;2023-07-29T13:21:27;30.20;95.50
11569;DHT22;5840;46.894;15.542;2023-07-29T13:23:53;29.90;96.40
11569;DHT22;5840;46.894;15.542;2023-07-29T13:26:21;29.80;96.60
11569;DHT22;5840;46.894;15.542;2023-07-29T13:28:48;29.60;97.10
11569;DHT22;5840;46.894;15.542;2023-07-29T13:31:15;29.60;97.80
11569;DHT22;5840;46.894;15.542;2023-07-29T13:33:42;29.50;98.10
11569;DHT22;5840;46.894;15.542;2023-07-29T13:36:09;29.60;98.60
11569;DHT22;5840;46.894;15.542;2023-07-29T13:38:37;29.60;99.90
11569;DHT22;5840;46.894;15.542;2023-07-29T13:41:04;29.60;99.40
11569;DHT22;5840;46.894;15.542;2023-07-29T13:43:31;29.70;96.90
11569;DHT22;5840;46.894;15.542;2023-07-29T13:45:58;29.70;99.20
11569;DHT22;5840;46.894;15.542;2023-07-29T13:48:25;29.80;99.90
11569;DHT22;5840;46.894;15.542;2023-07-29T13:50:52;29.80;99.20
11569;DHT22;5840;46.894;15.542;2023-07-29T13:53:18;29.70;99.60
11569;DHT22;5840;46.894;15.542;2023-07-29T13:55:47;29.70;98.70
11569;DHT22;5840;46.894;15.542;2023-07-29T13:58:14;29.80;97.40
11569;DHT22;5840;46.894;15.542;2023-07-29T14:00:40;29.90;98.10
11569;DHT22;5840;46.894;15.542;2023-07-29T14:03:07;30.20;99.40
11569;DHT22;5840;46.894;15.542;2023-07-29T14:05:34;30.50;96.70
11569;DHT22;5840;46.894;15.542;2023-07-29T14:08:01;30.70;95.70
11569;DHT22;5840;46.894;15.542;2023-07-29T14:10:28;30.80;96.30
11569;DHT22;5840;46.894;15.542;2023-07-29T14:12:56;30.80;96.00
11569;DHT22;5840;46.894;15.542;2023-07-29T14:15:23;30.70;97.50
11569;DHT22;5840;46.894;15.542;2023-07-29T14:17:50;30.70;97.10
11569;DHT22;5840;46.894;15.542;2023-07-29T14:20:17;30.60;96.80
11569;DHT22;5840;46.894;15.542;2023-07-29T14:22:44;30.60;96.40
11569;DHT22;5840;46.894;15.542;2023-07-29T14:25:11;30.50;98.00
11569;DHT22;5840;46.894;15.542;2023-07-29T14:27:39;30.50;97.70
11569;DHT22;5840;46.894;15.542;2023-07-29T14:30:08;30.50;96.80
11569;DHT22;5840;46.894;15.542;2023-07-29T14:32:35;30.40;97.90
11569;DHT22;5840;46.894;15.542;2023-07-29T14:35:03;30.30;97.00
11569;DHT22;5840;46.894;15.542;2023-07-29T14:37:30;30.20;97.70
11569;DHT22;5840;46.894;15.542;2023-07-29T14:39:57;30.20;98.00
11569;DHT22;5840;46.894;15.542;2023-07-29T14:42:24;30.00;98.10
11569;DHT22;5840;46.894;15.542;2023-07-29T14:44:51;30.00;99.30
11569;DHT22;5840;46.894;15.542;2023-07-29T14:47:20;29.90;99.30
11569;DHT22;5840;46.894;15.542;2023-07-29T14:49:46;29.90;98.60
11569;DHT22;5840;46.894;15.542;2023-07-29T14:52:13;29.70;98.80
11569;DHT22;5840;46.894;15.542;2023-07-29T14:54:40;29.70;99.10
11569;DHT22;5840;46.894;15.542;2023-07-29T14:57:10;29.60;98.60
11569;DHT22;5840;46.894;15.542;2023-07-29T14:59:37;29.70;99.20
11569;DHT22;5840;46.894;15.542;2023-07-29T15:02:05;29.80;98.60
11569;DHT22;5840;46.894;15.542;2023-07-29T15:04:33;29.90;99.90
11569;DHT22;5840;46.894;15.542;2023-07-29T15:07:01;30.00;99.10
11569;DHT22;5840;46.894;15.542;2023-07-29T15:09:28;30.10;98.90
11569;DHT22;5840;46.894;15.542;2023-07-29T15:11:55;30.10;99.60
11569;DHT22;5840;46.894;15.542;2023-07-29T15:14:22;30.20;99.20
11569;DHT22;5840;46.894;15.542;2023-07-29T15:16:49;30.20;99.90
11569;DHT22;5840;46.894;15.542;2023-07-29T15:19:15;30.10;97.50
11569;DHT22;5840;46.894;15.542;2023-07-29T15:21:44;29.90;98.10
11569;DHT22;5840;46.894;15.542;2023-07-29T15:24:11;29.80;98.10
11569;DHT22;5840;46.894;15.542;2023-07-29T15:26:37;29.70;97.20
11569;DHT22;5840;46.894;15.542;2023-07-29T15:29:04;29.60;97.80
11569;DHT22;5840;46.894;15.542;2023-07-29T15:31:33;29.50;98.50
11569;DHT22;5840;46.894;15.542;2023-07-29T15:34:00;29.60;98.00